Time;durP1;ratioP1;P1;durP2;ratioP2;P2;SDS_P1;SDS_P2;PMS_P1;PMS_P2;Temp;Humidity;BMP_temperature;BMP_pressure;BME280_temperature;BME280_humidity;BME280_pressure;Samples;Min_cycle;Max_cycle;Signal;HPM_P1;HPM_P2
2023/10/19 00:01:56;;;;;;;17.60;11.70;;;8.10;99.90;;;;;;5075960;28;20044;-69
2023/10/19 00:04:23;;;;;;;17.75;11.90;;;8.10;99.90;;;;;;5075849;28;20044;-69
2023/10/19 00:06:49;;;;;;;18.58;12.07;;;8.00;99.90;;;;;;5075413;28;20051;-69
2023/10/19 00:09:16;;;;;;;16.95;11.75;;;8.00;99.90;;;;;;5071291;28;20502;-69
2023/10/19 00:11:43;;;;;;;21.90;12.77;;;8.00;99.90;;;;;;5075992;28;20427;-69
2023/10/19 00:14:15;;;;;;;23.30;14.55;;;8.00;99.90;;;;;;5070881;28;20097;-69
2023/10/19 00:16:44;;;;;;;19.65;12.75;;;8.00;99.90;;;;;;5075686;28;20050;-69
2023/10/19 00:19:12;;;;;;;20.33;13.52;;;8.00;99.90;;;;;;5075737;28;20407;-69
2023/10/19 00:21:50;;;;;;;18.00;12.48;;;8.00;99.90;;;;;;5071620;28;20044;-69
2023/10/19 00:24:19;;;;;;;17.38;13.20;;;8.00;99.90;;;;;;5093511;28;20044;-69
2023/10/19 00:26:48;;;;;;;16.88;13.25;;;7.90;99.90;;;;;;5075408;28;20052;-68
2023/10/19 00:29:30;;;;;;;22.48;13.80;;;7.90;99.90;;;;;;5075006;28;20644;-69
2023/10/19 00:31:57;;;;;;;19.48;13.90;;;7.90;99.90;;;;;;5075436;28;20145;-69
2023/10/19 00:34:25;;;;;;;21.33;14.07;;;7.90;99.90;;;;;;5074866;28;20040;-68
2023/10/19 00:36:52;;;;;;;18.90;12.55;;;8.00;99.90;;;;;;5075568;28;20040;-68
2023/10/19 00:39:21;;;;;;;22.90;13.75;;;8.00;99.90;;;;;;5074845;28;20043;-67
2023/10/19 00:41:55;;;;;;;18.20;13.98;;;8.00;99.90;;;;;;5075067;28;20094;-67
2023/10/19 00:44:28;;;;;;;20.65;14.30;;;7.90;99.90;;;;;;5073093;28;20046;-69
2023/10/19 00:47:02;;;;;;;21.83;14.25;;;7.90;99.90;;;;;;5075109;28;20090;-69
2023/10/19 00:49:29;;;;;;;22.67;15.18;;;7.90;99.90;;;;;;5074739;28;20059;-69
2023/10/19 00:52:03;;;;;;;17.98;13.65;;;8.00;99.90;;;;;;5075224;28;20051;-68
2023/10/19 00:54:35;;;;;;;18.55;13.20;;;7.90;99.90;;;;;;5075078;28;20066;-69
2023/10/19 00:57:07;;;;;;;18.02;13.10;;;7.90;99.90;;;;;;5074662;28;20051;-69
2023/10/19 00:59:38;;;;;;;22.58;13.13;;;7.90;99.90;;;;;;5072078;28;20070;-69
2023/10/19 01:02:19;;;;;;;20.95;14.77;;;7.90;99.90;;;;;;5074885;28;20492;-69
2023/10/19 01:04:55;;;;;;;20.27;14.27;;;8.00;99.90;;;;;;5074236;28;20075;-69
2023/10/19 01:07:27;;;;;;;19.63;14.07;;;7.90;99.90;;;;;;5074242;28;20043;-69
2023/10/19 01:09:56;;;;;;;20.70;13.93;;;7.90;99.90;;;;;;5072826;28;20093;-69
2023/10/19 01:12:33;;;;;;;22.48;14.18;;;7.90;99.90;;;;;;5070243;28;20131;-69
2023/10/19 01:15:09;;;;;;;24.63;15.05;;;7.90;99.90;;;;;;5074502;28;20044;-69
2023/10/19 01:17:42;;;;;;;22.00;14.77;;;8.00;99.90;;;;;;5074224;28;20051;-69
2023/10/19 01:20:18;;;;;;;21.42;15.18;;;8.00;99.90;;;;;;5074659;28;20077;-69
2023/10/19 01:22:53;;;;;;;20.67;14.05;;;7.90;99.90;;;;;;5074322;28;20052;-70
2023/10/19 01:25:26;;;;;;;21.85;15.77;;;8.00;99.90;;;;;;5073950;28;20044;-69
2023/10/19 01:27:57;;;;;;;18.83;14.82;;;8.00;99.90;;;;;;5071692;28;20444;-70
2023/10/19 01:30:26;;;;;;;21.70;14.02;;;8.00;99.90;;;;;;5074222;28;20051;-69
2023/10/19 01:32:54;;;;;;;21.33;13.85;;;8.00;99.90;;;;;;5073965;28;20131;-69
2023/10/19 01:35:21;;;;;;;19.00;14.43;;;8.00;99.90;;;;;;5092141;28;20048;-69
2023/10/19 01:37:46;;;;;;;21.02;14.23;;;7.90;99.90;;;;;;5073648;28;20044;-69
2023/10/19 01:40:20;;;;;;;21.63;14.38;;;7.90;99.90;;;;;;5074279;28;20444;-69
2023/10/19 01:42:46;;;;;;;20.25;13.65;;;7.90;99.90;;;;;;5074339;28;20060;-70
2023/10/19 01:45:14;;;;;;;23.13;14.90;;;7.90;99.90;;;;;;5073726;28;20067;-70
2023/10/19 01:47:40;;;;;;;23.88;15.68;;;7.90;99.90;;;;;;5070551;28;20044;-70
2023/10/19 01:50:19;;;;;;;21.98;15.05;;;7.90;99.90;;;;;;5074032;28;20056;-69
2023/10/19 01:52:45;;;;;;;23.23;14.77;;;7.90;99.90;;;;;;5073887;28;20063;-69
2023/10/19 01:55:20;;;;;;;19.80;14.13;;;8.00;99.90;;;;;;5074214;28;20126;-70
2023/10/19 01:57:46;;;;;;;20.80;14.25;;;7.90;99.90;;;;;;5071799;28;20408;-69
2023/10/19 02:00:22;;;;;;;20.63;14.48;;;7.90;99.90;;;;;;5069763;28;20052;-69
2023/10/19 02:02:49;;;;;;;19.67;14.60;;;7.90;99.90;;;;;;5070547;28;20044;-69
2023/10/19 02:05:18;;;;;;;23.33;14.80;;;7.90;99.90;;;;;;5071669;28;20044;-69
2023/10/19 02:07:44;;;;;;;21.48;13.80;;;7.90;99.90;;;;;;5066257;28;20055;-70
2023/10/19 02:10:12;;;;;;;21.52;14.85;;;7.90;99.90;;;;;;5070341;28;20427;-69
2023/10/19 02:12:42;;;;;;;21.30;14.98;;;7.90;99.90;;;;;;5070908;28;20052;-69
2023/10/19 02:15:09;;;;;;;18.63;13.77;;;7.90;99.90;;;;;;5070335;28;20059;-68
2023/10/19 02:17:35;;;;;;;20.90;13.77;;;7.90;99.90;;;;;;5072693;28;20050;-69
2023/10/19 02:20:03;;;;;;;21.27;14.77;;;7.80;99.90;;;;;;5069701;28;20036;-69
2023/10/19 02:22:30;;;;;;;18.95;14.05;;;7.90;99.90;;;;;;5074503;28;20057;-70
2023/10/19 02:24:57;;;;;;;21.25;14.57;;;7.80;99.90;;;;;;5074730;28;20052;-69
2023/10/19 02:27:23;;;;;;;21.75;14.25;;;7.90;99.90;;;;;;5073655;28;20059;-70
2023/10/19 02:29:50;;;;;;;21.35;15.30;;;7.90;99.90;;;;;;5074723;28;20056;-69
2023/10/19 02:32:19;;;;;;;19.92;14.10;;;7.80;99.90;;;;;;5074211;28;20048;-69
2023/10/19 02:34:45;;;;;;;18.35;13.60;;;7.80;99.90;;;;;;5074903;28;20041;-70
2023/10/19 02:37:12;;;;;;;20.50;14.20;;;7.80;99.90;;;;;;5070261;28;20163;-70
2023/10/19 02:39:39;;;;;;;18.45;13.45;;;7.80;99.90;;;;;;5074319;28;20045;-70
2023/10/19 02:42:08;;;;;;;22.20;15.23;;;7.80;99.90;;;;;;5073587;28;20064;-70
2023/10/19 02:44:34;;;;;;;22.67;14.45;;;7.80;99.90;;;;;;5074432;28;20086;-70
2023/10/19 02:47:08;;;;;;;18.92;14.30;;;7.80;99.90;;;;;;5074158;28;20094;-70
2023/10/19 02:49:38;;;;;;;17.83;13.38;;;7.80;99.90;;;;;;5073971;28;20411;-70
2023/10/19 02:52:05;;;;;;;22.77;13.95;;;7.80;99.90;;;;;;5074032;28;20090;-70
2023/10/19 02:54:32;;;;;;;19.80;13.60;;;7.80;99.90;;;;;;5074121;28;20127;-70
2023/10/19 02:57:00;;;;;;;19.52;13.90;;;7.80;99.90;;;;;;5069505;28;20538;-70
2023/10/19 02:59:28;;;;;;;16.88;12.35;;;7.80;99.90;;;;;;5073684;28;20106;-70
2023/10/19 03:02:01;;;;;;;16.05;11.85;;;7.80;99.90;;;;;;5057009;28;20131;-69
2023/10/19 03:04:28;;;;;;;18.33;12.65;;;7.80;99.90;;;;;;5057140;28;20048;-69
2023/10/19 03:06:57;;;;;;;17.00;12.10;;;7.80;99.90;;;;;;5056785;28;20053;-69
2023/10/19 03:09:28;;;;;;;16.38;11.98;;;7.80;99.90;;;;;;5056739;28;20070;-70
2023/10/19 03:11:59;;;;;;;17.42;12.65;;;7.80;99.90;;;;;;5056832;28;20071;-71
2023/10/19 03:14:25;;;;;;;14.30;11.30;;;7.80;99.90;;;;;;5056745;28;20051;-71
2023/10/19 03:16:54;;;;;;;14.98;11.50;;;7.80;99.90;;;;;;5056240;28;20037;-71
2023/10/19 03:19:21;;;;;;;16.42;12.30;;;7.80;99.90;;;;;;5056670;28;20098;-71
2023/10/19 03:21:49;;;;;;;17.55;12.60;;;7.80;99.90;;;;;;5056696;28;20104;-70
2023/10/19 03:24:34;;;;;;;15.98;11.25;;;7.80;99.90;;;;;;5052721;28;20135;-70
2023/10/19 03:27:00;;;;;;;14.57;11.02;;;7.80;99.90;;;;;;5056505;28;20076;-70
2023/10/19 03:29:31;;;;;;;13.95;10.32;;;7.80;99.90;;;;;;5056033;28;20133;-69
2023/10/19 03:31:58;;;;;;;15.88;11.15;;;7.80;99.90;;;;;;5055980;28;20519;-71
2023/10/19 03:34:25;;;;;;;14.50;11.05;;;7.80;99.90;;;;;;5056637;28;20114;-70
2023/10/19 03:36:54;;;;;;;15.40;11.82;;;7.80;99.90;;;;;;5052468;28;20093;-71
2023/10/19 03:39:22;;;;;;;16.52;12.02;;;7.80;99.90;;;;;;5055730;28;20057;-71
2023/10/19 03:41:51;;;;;;;14.40;10.38;;;7.80;99.90;;;;;;5056616;28;20052;-71
2023/10/19 03:44:19;;;;;;;16.38;11.25;;;7.80;99.90;;;;;;5056181;28;20049;-71
2023/10/19 03:46:55;;;;;;;16.92;12.27;;;7.80;99.90;;;;;;5056144;28;20056;-71
2023/10/19 03:49:22;;;;;;;14.15;10.40;;;7.90;99.90;;;;;;5056183;28;20048;-72
2023/10/19 03:52:19;;;;;;;16.23;11.32;;;7.80;99.90;;;;;;5055596;28;20140;-72
2023/10/19 03:54:48;;;;;;;13.00;10.32;;;7.90;99.90;;;;;;5055980;28;20504;-71
2023/10/19 03:57:22;;;;;;;13.88;9.93;;;7.80;99.90;;;;;;5056178;28;20056;-70
2023/10/19 03:59:52;;;;;;;14.52;10.68;;;7.80;99.90;;;;;;5055089;28;20056;-71
2023/10/19 04:02:20;;;;;;;15.30;11.45;;;7.90;99.90;;;;;;5076010;28;20381;-71
2023/10/19 04:04:49;;;;;;;15.93;11.38;;;7.90;99.90;;;;;;5075822;28;20591;-71
2023/10/19 04:07:20;;;;;;;14.68;10.98;;;7.90;99.90;;;;;;5071643;28;20075;-71
2023/10/19 04:10:09;;;;;;;14.30;10.93;;;7.90;99.90;;;;;;5076217;28;20055;-71
2023/10/19 04:12:37;;;;;;;14.30;9.85;;;7.90;99.90;;;;;;5075384;28;20507;-71
2023/10/19 04:15:11;;;;;;;14.98;10.98;;;7.90;99.90;;;;;;5075664;28;20050;-72
2023/10/19 04:17:40;;;;;;;14.90;10.75;;;7.90;99.90;;;;;;5073446;28;20050;-72
2023/10/19 04:20:26;;;;;;;12.85;10.20;;;7.90;99.90;;;;;;5075251;28;20048;-71
2023/10/19 04:22:53;;;;;;;12.32;9.23;;;7.90;99.90;;;;;;5067084;28;20060;-71
2023/10/19 04:25:25;;;;;;;13.88;10.02;;;8.10;99.90;;;;;;5065907;28;20040;-71
2023/10/19 04:27:52;;;;;;;11.38;8.93;;;8.00;99.90;;;;;;5065733;28;20080;-70
2023/10/19 04:30:22;;;;;;;13.43;10.05;;;8.00;99.90;;;;;;5068627;28;20446;-70
2023/10/19 04:32:50;;;;;;;13.85;10.00;;;8.00;99.90;;;;;;5064738;28;20059;-70
2023/10/19 04:35:22;;;;;;;12.93;9.23;;;8.00;99.90;;;;;;5069543;28;20231;-70
2023/10/19 04:37:50;;;;;;;11.55;8.63;;;8.00;99.90;;;;;;5070956;28;20067;-69
2023/10/19 04:40:17;;;;;;;11.93;8.98;;;8.00;99.90;;;;;;5087555;28;20055;-70
2023/10/19 04:42:46;;;;;;;12.48;9.65;;;8.00;99.90;;;;;;5072050;28;20052;-69
2023/10/19 04:45:13;;;;;;;13.70;9.23;;;8.00;99.90;;;;;;5070494;28;20054;-69
2023/10/19 04:47:41;;;;;;;13.35;10.00;;;8.00;99.90;;;;;;5064414;28;20068;-71
2023/10/19 04:50:10;;;;;;;12.73;9.07;;;8.00;99.90;;;;;;5070131;28;20125;-71
2023/10/19 04:52:37;;;;;;;11.70;8.63;;;8.10;99.90;;;;;;5060284;28;20063;-69
2023/10/19 04:55:05;;;;;;;11.63;9.07;;;8.10;99.90;;;;;;5071188;28;20397;-70
2023/10/19 04:57:32;;;;;;;11.18;8.90;;;8.00;99.90;;;;;;5069793;28;20036;-70
2023/10/19 05:00:00;;;;;;;10.90;7.93;;;8.10;99.90;;;;;;5069955;28;20118;-70
2023/10/19 05:02:27;;;;;;;9.35;7.40;;;8.00;99.90;;;;;;5062919;28;20516;-70
2023/10/19 05:04:54;;;;;;;10.82;8.57;;;8.00;99.90;;;;;;5064447;28;20045;-72
2023/10/19 05:07:21;;;;;;;9.48;7.63;;;8.10;99.90;;;;;;5060982;28;20052;-72
2023/10/19 05:09:48;;;;;;;10.40;8.27;;;8.10;99.90;;;;;;5063519;28;20105;-71
2023/10/19 05:12:16;;;;;;;9.30;7.65;;;8.10;99.90;;;;;;5060915;28;20053;-71
2023/10/19 05:14:43;;;;;;;9.63;7.60;;;8.10;99.90;;;;;;5064633;28;20049;-69
2023/10/19 05:17:12;;;;;;;10.95;7.20;;;8.10;99.90;;;;;;5062710;28;20044;-69
2023/10/19 05:19:40;;;;;;;9.40;7.10;;;8.10;99.90;;;;;;5066798;28;20501;-70
2023/10/19 05:22:08;;;;;;;10.25;7.28;;;8.10;99.90;;;;;;5067977;28;20114;-68
2023/10/19 05:24:35;;;;;;;8.80;6.85;;;8.10;99.90;;;;;;5065602;28;20044;-68
2023/10/19 05:27:02;;;;;;;9.00;7.07;;;8.10;99.90;;;;;;5063162;28;20442;-69
2023/10/19 05:29:32;;;;;;;8.88;6.20;;;8.10;99.90;;;;;;5064772;28;20053;-68
2023/10/19 05:31:58;;;;;;;8.43;6.85;;;8.10;99.90;;;;;;5067904;28;20114;-66
2023/10/19 05:34:29;;;;;;;8.80;6.60;;;8.10;99.90;;;;;;5066861;28;20461;-69
2023/10/19 05:36:58;;;;;;;8.13;6.68;;;8.10;99.90;;;;;;5065384;28;20044;-67
2023/10/19 05:39:27;;;;;;;9.00;6.78;;;8.10;99.90;;;;;;5067111;28;20459;-68
2023/10/19 05:41:54;;;;;;;9.40;6.68;;;8.10;99.90;;;;;;5065038;28;20045;-68
2023/10/19 05:44:24;;;;;;;10.73;7.72;;;8.10;99.90;;;;;;5066241;28;20086;-69
2023/10/19 05:46:52;;;;;;;8.73;6.75;;;8.10;99.90;;;;;;5063322;28;20382;-71
2023/10/19 05:49:19;;;;;;;7.78;5.65;;;8.10;99.90;;;;;;5063596;28;20127;-69
2023/10/19 05:51:48;;;;;;;7.68;6.05;;;8.10;99.90;;;;;;5063824;28;20522;-67
2023/10/19 05:54:15;;;;;;;8.23;6.35;;;8.10;99.90;;;;;;5063385;28;20102;-69
2023/10/19 05:56:41;;;;;;;7.30;5.65;;;8.20;99.90;;;;;;5060518;28;20055;-68
2023/10/19 05:59:09;;;;;;;8.85;5.63;;;8.20;99.90;;;;;;5042321;28;20061;-69
2023/10/19 06:01:36;;;;;;;6.43;4.90;;;8.20;99.90;;;;;;5065958;28;20091;-69
2023/10/19 06:04:05;;;;;;;7.25;5.45;;;8.20;99.90;;;;;;5064871;28;20489;-68
2023/10/19 06:06:32;;;;;;;6.32;5.28;;;8.20;99.90;;;;;;5070370;28;20407;-67
2023/10/19 06:09:02;;;;;;;5.63;4.78;;;8.20;99.90;;;;;;5084670;28;20414;-68
2023/10/19 06:11:32;;;;;;;6.17;4.93;;;8.20;99.90;;;;;;5063495;28;20052;-68
2023/10/19 06:13:59;;;;;;;7.25;4.50;;;8.20;99.90;;;;;;5068152;28;20105;-68
2023/10/19 06:16:27;;;;;;;5.85;4.35;;;8.20;99.90;;;;;;5069365;28;20066;-69
2023/10/19 06:18:55;;;;;;;6.20;4.60;;;8.20;99.90;;;;;;5067002;28;20048;-68
2023/10/19 06:21:23;;;;;;;6.00;4.63;;;8.20;99.90;;;;;;5068059;28;20048;-68
2023/10/19 06:23:54;;;;;;;5.53;4.25;;;8.20;99.90;;;;;;5073332;28;20056;-68
2023/10/19 06:26:22;;;;;;;5.85;4.40;;;7.60;99.90;;;;;;5073601;28;20113;-67
2023/10/19 06:28:50;;;;;;;6.15;4.63;;;8.20;99.90;;;;;;5069159;28;20071;-68
2023/10/19 06:31:19;;;;;;;6.53;4.55;;;8.20;99.90;;;;;;5073549;28;20058;-68
2023/10/19 06:33:46;;;;;;;5.72;4.57;;;8.20;99.90;;;;;;5073555;28;20052;-69
2023/10/19 06:36:13;;;;;;;7.18;4.53;;;8.20;99.90;;;;;;5073708;28;20056;-69
2023/10/19 06:38:39;;;;;;;5.55;4.18;;;8.20;99.90;;;;;;5069625;28;20043;-69
2023/10/19 06:41:16;;;;;;;5.32;4.32;;;8.20;99.90;;;;;;5073267;28;20047;-69
2023/10/19 06:43:45;;;;;;;6.10;4.57;;;8.30;99.90;;;;;;5073399;28;20048;-69
2023/10/19 06:46:12;;;;;;;6.15;3.92;;;8.20;99.90;;;;;;5073552;28;20044;-69
2023/10/19 06:48:39;;;;;;;5.68;3.72;;;8.20;99.90;;;;;;5072260;28;20055;-68
2023/10/19 06:51:06;;;;;;;5.03;3.88;;;8.30;99.90;;;;;;5070771;28;20094;-69
2023/10/19 06:53:33;;;;;;;5.60;3.72;;;8.30;99.90;;;;;;5062520;28;20065;-68
2023/10/19 06:56:00;;;;;;;4.93;3.45;;;8.30;99.90;;;;;;5063594;28;20048;-67
2023/10/19 06:58:27;;;;;;;4.45;3.40;;;8.30;99.90;;;;;;5067327;28;20462;-68
2023/10/19 07:00:59;;;;;;;4.95;3.80;;;8.30;99.90;;;;;;5084842;28;20056;-69
2023/10/19 07:03:28;;;;;;;4.15;3.15;;;8.40;99.90;;;;;;5070929;28;20131;-69
2023/10/19 07:05:58;;;;;;;5.22;3.50;;;8.40;99.90;;;;;;5072765;28;20471;-69
2023/10/19 07:08:28;;;;;;;4.38;3.15;;;8.40;99.90;;;;;;5075612;28;20052;-69
2023/10/19 07:10:55;;;;;;;3.28;2.70;;;8.40;99.90;;;;;;5076613;28;20044;-68
2023/10/19 07:13:22;;;;;;;3.97;2.97;;;8.40;99.90;;;;;;5072508;28;20056;-68
2023/10/19 07:15:50;;;;;;;4.20;2.97;;;8.40;99.90;;;;;;5076372;28;20127;-68
2023/10/19 07:18:19;;;;;;;4.25;3.13;;;8.40;99.90;;;;;;5072952;28;20056;-68
2023/10/19 07:20:48;;;;;;;4.68;3.63;;;8.40;99.90;;;;;;5076911;28;20052;-68
2023/10/19 07:23:19;;;;;;;4.55;3.28;;;8.30;99.90;;;;;;5076096;28;20062;-68
2023/10/19 07:25:52;;;;;;;3.45;2.90;;;8.40;99.90;;;;;;5073727;28;20154;-68
2023/10/19 07:28:21;;;;;;;3.28;2.50;;;8.30;99.90;;;;;;5076574;28;20040;-67
2023/10/19 07:30:48;;;;;;;4.45;2.88;;;8.40;99.90;;;;;;5076033;28;20060;-68
2023/10/19 07:33:17;;;;;;;3.40;2.70;;;8.40;99.90;;;;;;5076280;28;20040;-67
2023/10/19 07:35:47;;;;;;;3.25;2.42;;;8.40;99.90;;;;;;5076561;28;20132;-68
2023/10/19 07:38:15;;;;;;;3.07;2.23;;;8.40;99.90;;;;;;5076099;28;20058;-67
2023/10/19 07:40:43;;;;;;;3.47;2.45;;;8.40;99.90;;;;;;5076445;28;20340;-67
2023/10/19 07:43:10;;;;;;;3.72;2.15;;;8.40;99.90;;;;;;5072589;28;20055;-68
2023/10/19 07:45:37;;;;;;;3.40;2.40;;;8.40;99.90;;;;;;5075804;28;20052;-67
2023/10/19 07:48:07;;;;;;;3.33;2.60;;;8.40;99.90;;;;;;5075968;28;20040;-67
2023/10/19 07:50:34;;;;;;;3.85;2.85;;;8.40;99.90;;;;;;5075726;28;20044;-68
2023/10/19 07:53:03;;;;;;;3.50;2.50;;;8.40;99.90;;;;;;5076204;28;20127;-68
2023/10/19 07:55:31;;;;;;;3.90;2.58;;;8.40;99.90;;;;;;5076025;28;20048;-67
2023/10/19 07:58:01;;;;;;;3.85;2.95;;;8.40;99.90;;;;;;5064538;28;20055;-67
2023/10/19 08:00:29;;;;;;;4.75;2.80;;;8.40;99.90;;;;;;5075649;28;20056;-67
2023/10/19 08:02:56;;;;;;;4.40;2.80;;;8.40;99.90;;;;;;5072858;28;20044;-67
2023/10/19 08:05:23;;;;;;;3.85;2.72;;;8.40;99.90;;;;;;5075506;28;20048;-68
2023/10/19 08:07:50;;;;;;;3.30;2.70;;;8.40;99.90;;;;;;5074740;28;20043;-67
2023/10/19 08:10:20;;;;;;;3.42;2.60;;;8.50;99.90;;;;;;5075854;28;20044;-67
2023/10/19 08:12:49;;;;;;;3.55;2.67;;;8.40;99.90;;;;;;5075372;28;20052;-69
2023/10/19 08:15:17;;;;;;;3.85;2.50;;;8.40;99.90;;;;;;5075159;28;20048;-68
2023/10/19 08:17:46;;;;;;;3.65;2.70;;;8.40;99.90;;;;;;5093448;28;20056;-68
2023/10/19 08:20:22;;;;;;;3.20;2.60;;;8.40;99.90;;;;;;5074671;28;20097;-68
2023/10/19 08:22:49;;;;;;;6.20;3.30;;;8.50;99.90;;;;;;5074908;28;20504;-68
2023/10/19 08:25:18;;;;;;;3.65;2.53;;;8.50;99.90;;;;;;5075657;28;20047;-68
2023/10/19 08:27:48;;;;;;;4.28;2.80;;;8.50;99.90;;;;;;5074778;28;20389;-68
2023/10/19 08:30:17;;;;;;;4.05;3.13;;;8.60;99.90;;;;;;5071561;28;20131;-68
2023/10/19 08:32:47;;;;;;;4.97;3.22;;;8.60;99.90;;;;;;5074750;28;20044;-68
2023/10/19 08:35:15;;;;;;;4.28;2.55;;;8.50;99.90;;;;;;5066721;28;20054;-68
2023/10/19 08:37:42;;;;;;;5.22;2.90;;;8.50;99.90;;;;;;5073596;28;20048;-68
2023/10/19 08:40:14;;;;;;;5.45;3.25;;;8.50;99.90;;;;;;5072786;28;20055;-68
2023/10/19 08:42:43;;;;;;;4.22;3.20;;;8.60;99.90;;;;;;5075126;28;20044;-68
2023/10/19 08:45:12;;;;;;;3.75;2.75;;;8.50;99.90;;;;;;5075272;28;20492;-68
2023/10/19 08:47:44;;;;;;;4.13;2.97;;;8.60;99.90;;;;;;5088397;28;20082;-67
2023/10/19 08:50:12;;;;;;;3.88;2.95;;;8.60;99.90;;;;;;5075043;28;20040;-68
2023/10/19 08:52:41;;;;;;;4.28;2.97;;;8.60;99.90;;;;;;5070509;28;20179;-68
2023/10/19 08:55:09;;;;;;;3.30;2.90;;;8.60;99.90;;;;;;5074595;28;20490;-68
2023/10/19 08:57:38;;;;;;;3.50;2.90;;;8.70;99.90;;;;;;5074270;28;20059;-67
2023/10/19 09:00:08;;;;;;;4.13;3.03;;;8.60;99.90;;;;;;5071346;28;20067;-68
2023/10/19 09:02:35;;;;;;;4.85;3.60;;;8.70;99.90;;;;;;5068527;28;20094;-69
2023/10/19 09:05:07;;;;;;;5.53;3.30;;;8.70;99.90;;;;;;5070724;28;20500;-67
2023/10/19 09:07:35;;;;;;;4.38;3.53;;;8.70;99.90;;;;;;5071048;28;20063;-69
2023/10/19 09:10:05;;;;;;;4.50;3.50;;;8.70;99.90;;;;;;5070988;28;20102;-69
2023/10/19 09:12:32;;;;;;;4.50;3.30;;;8.70;99.90;;;;;;5071128;28;20055;-69
2023/10/19 09:15:00;;;;;;;4.47;3.30;;;8.70;99.90;;;;;;5070671;28;20062;-68
2023/10/19 09:17:31;;;;;;;72.00;12.45;;;8.90;99.90;;;;;;5066889;28;20048;-68
2023/10/19 09:20:02;;;;;;;12.55;3.72;;;8.80;99.90;;;;;;5071157;28;20050;-69
2023/10/19 09:22:44;;;;;;;5.53;3.75;;;8.80;99.90;;;;;;5070529;28;20069;-69
2023/10/19 09:25:11;;;;;;;29.73;6.90;;;8.80;99.90;;;;;;5072034;28;20094;-69
2023/10/19 09:27:37;;;;;;;7.60;3.88;;;8.80;99.90;;;;;;5070176;28;20052;-68
2023/10/19 09:30:09;;;;;;;6.15;4.03;;;8.80;99.90;;;;;;5071554;28;20049;-67
2023/10/19 09:32:39;;;;;;;5.40;3.53;;;8.80;99.90;;;;;;5067706;28;20053;-67
2023/10/19 09:35:08;;;;;;;4.43;3.72;;;8.90;99.90;;;;;;5072190;28;20459;-67
2023/10/19 09:37:36;;;;;;;4.88;3.90;;;8.90;99.90;;;;;;5071347;28;20080;-67
2023/10/19 09:40:03;;;;;;;4.28;3.78;;;8.90;99.90;;;;;;5067542;28;20094;-67
2023/10/19 09:42:31;;;;;;;6.18;3.92;;;9.00;99.90;;;;;;5070947;28;20139;-68
2023/10/19 09:45:05;;;;;;;5.82;4.30;;;9.00;99.90;;;;;;5070300;28;20106;-68
2023/10/19 09:47:40;;;;;;;7.68;4.28;;;9.10;99.90;;;;;;5070986;28;20071;-68
2023/10/19 09:50:08;;;;;;;6.05;4.55;;;9.10;99.90;;;;;;5070127;28;20067;-69
2023/10/19 09:52:39;;;;;;;5.60;4.03;;;9.10;99.90;;;;;;5070798;28;20484;-67
2023/10/19 09:55:13;;;;;;;8.90;5.18;;;9.20;99.90;;;;;;5070529;28;20497;-67
2023/10/19 09:57:47;;;;;;;6.10;4.28;;;9.20;99.90;;;;;;5070116;28;20059;-67
2023/10/19 10:00:20;;;;;;;5.20;3.95;;;9.20;99.90;;;;;;5072071;28;20093;-68
2023/10/19 10:02:52;;;;;;;7.35;5.07;;;9.30;99.90;;;;;;5070646;28;20131;-67
2023/10/19 10:05:48;;;;;;;6.03;4.53;;;9.30;99.90;;;;;;5073297;28;20052;-67
2023/10/19 10:08:33;;;;;;;6.40;4.43;;;9.30;99.90;;;;;;5073777;28;20054;-67
2023/10/19 10:11:17;;;;;;;6.50;4.43;;;9.40;99.90;;;;;;5069992;28;20083;-67
2023/10/19 10:13:45;;;;;;;8.30;4.63;;;9.40;99.90;;;;;;5073590;28;20048;-68
2023/10/19 10:16:15;;;;;;;8.77;5.05;;;9.40;99.90;;;;;;5073235;28;20449;-68
2023/10/19 10:18:44;;;;;;;12.23;5.20;;;9.50;99.90;;;;;;5051400;28;20052;-68
2023/10/19 10:21:13;;;;;;;8.55;5.47;;;9.50;99.90;;;;;;5066652;28;20450;-68
2023/10/19 10:23:44;;;;;;;6.80;4.95;;;9.60;99.90;;;;;;5069161;28;20052;-67
2023/10/19 10:26:13;;;;;;;8.13;5.63;;;9.60;99.90;;;;;;5069949;28;20052;-67
2023/10/19 10:28:41;;;;;;;6.45;4.63;;;9.60;99.90;;;;;;5071997;28;20058;-68
2023/10/19 10:31:16;;;;;;;7.53;5.40;;;9.60;99.90;;;;;;5069092;28;20159;-67
2023/10/19 10:33:46;;;;;;;6.55;5.10;;;9.60;99.90;;;;;;5089112;28;20530;-67
2023/10/19 10:36:14;;;;;;;7.03;5.13;;;9.60;99.90;;;;;;5068336;28;20140;-67
2023/10/19 10:38:41;;;;;;;8.55;5.25;;;9.60;99.90;;;;;;5070387;28;20097;-67
2023/10/19 10:41:10;;;;;;;6.60;4.95;;;9.60;99.90;;;;;;5070148;28;20089;-67
2023/10/19 10:43:53;;;;;;;8.00;5.45;;;9.60;99.90;;;;;;5072627;28;20119;-67
2023/10/19 10:46:22;;;;;;;7.57;5.63;;;9.60;99.90;;;;;;5070535;28;20052;-67
2023/10/19 10:48:51;;;;;;;7.28;5.35;;;9.60;99.90;;;;;;5070387;28;20119;-68
2023/10/19 10:51:24;;;;;;;9.27;5.65;;;9.60;99.90;;;;;;5073581;28;20068;-67
2023/10/19 10:53:52;;;;;;;9.27;5.40;;;9.70;99.90;;;;;;5074706;28;20070;-67
2023/10/19 10:56:20;;;;;;;8.95;5.20;;;9.70;99.90;;;;;;5073383;28;20135;-67
2023/10/19 10:58:47;;;;;;;6.15;4.65;;;9.70;99.90;;;;;;5090472;28;20103;-67
2023/10/19 11:01:14;;;;;;;9.27;5.05;;;9.70;99.90;;;;;;5074385;28;20117;-69
2023/10/19 11:03:42;;;;;;;9.88;4.95;;;9.70;99.90;;;;;;5069656;28;20056;-68
2023/10/19 11:06:11;;;;;;;6.88;4.57;;;9.80;99.90;;;;;;5069955;28;20045;-69
2023/10/19 11:08:39;;;;;;;7.90;4.38;;;9.70;99.90;;;;;;5070004;28;20044;-69
2023/10/19 11:11:10;;;;;;;5.82;4.60;;;9.60;99.90;;;;;;5076796;28;20136;-69
2023/10/19 11:13:38;;;;;;;6.60;4.57;;;9.70;99.90;;;;;;5073610;28;20052;-68
2023/10/19 11:16:07;;;;;;;7.15;4.85;;;9.70;99.90;;;;;;5075380;28;20105;-68
2023/10/19 11:18:37;;;;;;;6.40;4.72;;;9.70;99.90;;;;;;5076813;28;20090;-68
2023/10/19 11:21:09;;;;;;;6.53;4.67;;;9.70;99.90;;;;;;5076816;28;20054;-68
2023/10/19 11:23:42;;;;;;;6.35;4.50;;;9.70;99.90;;;;;;5076088;28;20110;-69
2023/10/19 11:26:10;;;;;;;7.03;4.00;;;9.70;99.90;;;;;;5072539;28;20134;-70
2023/10/19 11:28:42;;;;;;;7.63;5.03;;;9.70;99.90;;;;;;5074218;28;20551;-69
2023/10/19 11:31:17;;;;;;;8.50;5.90;;;9.70;99.90;;;;;;5076339;28;20567;-70
2023/10/19 11:33:45;;;;;;;10.73;6.22;;;9.70;99.90;;;;;;5071287;28;20060;-69
2023/10/19 11:36:13;;;;;;;7.97;5.10;;;9.70;99.90;;;;;;5076088;28;20089;-69
2023/10/19 11:38:43;;;;;;;7.82;5.40;;;9.70;99.90;;;;;;5076404;28;20574;-68
2023/10/19 11:41:10;;;;;;;8.20;5.55;;;9.70;99.90;;;;;;5076483;28;20132;-69
2023/10/19 11:43:37;;;;;;;9.82;6.32;;;9.70;99.90;;;;;;5075377;28;20101;-68
2023/10/19 11:46:07;;;;;;;10.75;6.28;;;9.70;99.90;;;;;;5094060;28;20044;-68
2023/10/19 11:48:35;;;;;;;9.48;5.70;;;9.80;99.90;;;;;;5072459;28;20565;-68
2023/10/19 11:51:03;;;;;;;7.93;5.47;;;9.70;99.90;;;;;;5074800;28;20152;-68
2023/10/19 11:53:36;;;;;;;7.03;5.13;;;9.70;99.90;;;;;;5075761;28;20044;-68
2023/10/19 11:56:06;;;;;;;7.07;5.32;;;9.70;99.90;;;;;;5074530;28;20097;-68
2023/10/19 11:58:34;;;;;;;8.38;5.50;;;9.70;99.90;;;;;;5075468;28;20051;-68
2023/10/19 12:01:03;;;;;;;7.97;4.88;;;9.70;99.90;;;;;;5073058;28;20051;-67
2023/10/19 12:03:29;;;;;;;9.20;5.25;;;9.70;99.90;;;;;;5075696;28;20051;-67
2023/10/19 12:05:57;;;;;;;8.90;5.55;;;9.60;99.90;;;;;;5075084;28;20056;-68
2023/10/19 12:08:24;;;;;;;8.85;5.03;;;9.70;99.90;;;;;;5072291;28;20048;-69
2023/10/19 12:10:54;;;;;;;9.63;5.63;;;9.80;99.90;;;;;;5074815;28;20544;-69
2023/10/19 12:13:24;;;;;;;8.27;5.80;;;9.70;99.90;;;;;;5075848;28;20097;-69
2023/10/19 12:15:54;;;;;;;7.22;5.85;;;9.80;99.90;;;;;;5076072;28;20101;-69
2023/10/19 12:18:22;;;;;;;;;;;9.70;99.90;;;;;;5075777;28;20091;-70
2023/10/19 12:20:49;;;;;;;7.78;6.13;;;9.70;99.90;;;;;;5093491;28;20342;-69
2023/10/19 12:23:15;;;;;;;7.65;5.85;;;9.70;99.90;;;;;;5075233;28;20109;-69
2023/10/19 12:25:43;;;;;;;8.85;6.22;;;9.80;99.90;;;;;;5075153;28;20059;-69
2023/10/19 12:28:13;;;;;;;9.82;7.22;;;9.70;99.90;;;;;;5074018;28;20058;-69
2023/10/19 12:30:42;;;;;;;13.82;7.60;;;9.80;99.90;;;;;;5075256;28;20454;-69
2023/10/19 12:33:12;;;;;;;11.68;8.77;;;9.70;99.90;;;;;;5074936;28;20525;-69
2023/10/19 12:35:48;;;;;;;9.27;7.95;;;9.70;99.90;;;;;;5074976;28;20087;-68
2023/10/19 12:38:17;;;;;;;10.75;8.90;;;9.70;99.90;;;;;;5075398;28;20052;-68
2023/10/19 12:40:46;;;;;;;11.70;8.75;;;9.70;99.90;;;;;;5072191;28;20492;-68
2023/10/19 12:43:13;;;;;;;10.30;9.13;;;9.60;99.90;;;;;;5071685;28;20059;-68
2023/10/19 12:45:43;;;;;;;13.05;10.18;;;9.60;99.90;;;;;;5075020;28;20058;-70
2023/10/19 12:48:10;;;;;;;14.32;9.40;;;9.60;99.90;;;;;;5092619;28;20407;-69
2023/10/19 12:50:38;;;;;;;11.43;8.38;;;9.60;99.90;;;;;;5074850;28;20044;-69
2023/10/19 12:53:06;;;;;;;10.95;8.27;;;9.60;99.90;;;;;;5074603;28;20408;-68
2023/10/19 12:55:33;;;;;;;10.15;7.88;;;9.60;99.90;;;;;;5074763;28;20479;-68
2023/10/19 12:58:07;;;;;;;13.25;8.52;;;9.60;99.90;;;;;;5074884;28;20123;-67
2023/10/19 13:00:40;;;;;;;11.10;7.40;;;9.60;99.90;;;;;;5070719;28;20412;-68